sensor_id;sensor_type;location;lat;lon;timestamp;temperature;humidity
47482;DHT22;33219;47.410;9.730;2022-10-31T00:01:17;9.00;99.90
47482;DHT22;33219;47.410;9.730;2022-10-31T00:03:45;8.90;99.90
47482;DHT22;33219;47.410;9.730;2022-10-31T00:06:14;8.90;99.90
47482;DHT22;33219;47.410;9.730;2022-10-31T00:08:45;8.90;99.90
47482;DHT22;33219;47.410;9.730;2022-10-31T00:11:12;8.90;99.90
47482;DHT22;33219;47.410;9.730;2022-10-31T00:13:40;9.00;99.90
47482;DHT22;33219;47.410;9.730;2022-10-31T00:16:23;8.90;99.90
47482;DHT22;33219;47.410;9.730;2022-10-31T00:18:51;8.90;99.90
47482;DHT22;33219;47.410;9.730;2022-10-31T00:21:20;8.80;99.90
47482;DHT22;33219;47.410;9.730;2022-10-31T00:23:48;8.80;99.90
47482;DHT22;33219;47.410;9.730;2022-10-31T00:26:16;8.80;99.90
47482;DHT22;33219;47.410;9.730;2022-10-31T00:28:43;8.70;99.90
47482;DHT22;33219;47.410;9.730;2022-10-31T00:31:12;8.80;99.90
47482;DHT22;33219;47.410;9.730;2022-10-31T00:33:41;8.80;99.90
47482;DHT22;33219;47.410;9.730;2022-10-31T00:36:11;8.70;99.90
47482;DHT22;33219;47.410;9.730;2022-10-31T00:38:39;8.70;99.90
47482;DHT22;33219;47.410;9.730;2022-10-31T00:41:07;8.70;99.90
47482;DHT22;33219;47.410;9.730;2022-10-31T00:43:35;8.70;99.90
47482;DHT22;33219;47.410;9.730;2022-10-31T00:46:02;8.70;99.90
47482;DHT22;33219;47.410;9.730;2022-10-31T00:48:30;8.70;99.90
47482;DHT22;33219;47.410;9.730;2022-10-31T00:50:58;8.70;99.90
47482;DHT22;33219;47.410;9.730;2022-10-31T00:53:25;8.60;99.90
47482;DHT22;33219;47.410;9.730;2022-10-31T00:55:53;8.60;99.90
47482;DHT22;33219;47.410;9.730;2022-10-31T00:58:21;8.50;99.90
47482;DHT22;33219;47.410;9.730;2022-10-31T01:00:49;8.50;99.90
47482;DHT22;33219;47.410;9.730;2022-10-31T01:03:18;8.50;99.90
47482;DHT22;33219;47.410;9.730;2022-10-31T01:05:46;8.50;99.90
47482;DHT22;33219;47.410;9.730;2022-10-31T01:08:15;8.50;99.90
47482;DHT22;33219;47.410;9.730;2022-10-31T01:10:42;8.50;99.90
47482;DHT22;33219;47.410;9.730;2022-10-31T01:13:10;8.60;99.90
47482;DHT22;33219;47.410;9.730;2022-10-31T01:15:37;8.60;99.90
47482;DHT22;33219;47.410;9.730;2022-10-31T01:18:05;8.60;99.90
47482;DHT22;33219;47.410;9.730;2022-10-31T01:20:33;8.60;99.90
47482;DHT22;33219;47.410;9.730;2022-10-31T01:23:00;8.60;99.90
47482;DHT22;33219;47.410;9.730;2022-10-31T01:25:28;8.50;99.90
47482;DHT22;33219;47.410;9.730;2022-10-31T01:27:55;8.60;99.90
47482;DHT22;33219;47.410;9.730;2022-10-31T01:30:23;8.50;99.90
47482;DHT22;33219;47.410;9.730;2022-10-31T01:32:50;8.60;99.90
47482;DHT22;33219;47.410;9.730;2022-10-31T01:35:18;8.50;99.90
47482;DHT22;33219;47.410;9.730;2022-10-31T01:37:45;8.50;99.90
47482;DHT22;33219;47.410;9.730;2022-10-31T01:40:13;8.50;99.90
47482;DHT22;33219;47.410;9.730;2022-10-31T01:42:41;8.40;99.90
47482;DHT22;33219;47.410;9.730;2022-10-31T01:45:10;8.50;99.90
47482;DHT22;33219;47.410;9.730;2022-10-31T01:47:43;8.50;99.90
47482;DHT22;33219;47.410;9.730;2022-10-31T01:50:19;8.50;99.90
47482;DHT22;33219;47.410;9.730;2022-10-31T01:52:46;8.50;99.90
47482;DHT22;33219;47.410;9.730;2022-10-31T01:55:33;8.50;99.90
47482;DHT22;33219;47.410;9.730;2022-10-31T01:58:05;8.50;99.90
47482;DHT22;33219;47.410;9.730;2022-10-31T02:00:29;8.40;99.90
47482;DHT22;33219;47.410;9.730;2022-10-31T02:02:57;8.40;99.90
47482;DHT22;33219;47.410;9.730;2022-10-31T02:05:27;8.40;99.90
47482;DHT22;33219;47.410;9.730;2022-10-31T02:10:42;8.40;99.90
47482;DHT22;33219;47.410;9.730;2022-10-31T02:13:13;8.40;99.90
47482;DHT22;33219;47.410;9.730;2022-10-31T02:15:41;8.40;99.90
47482;DHT22;33219;47.410;9.730;2022-10-31T02:18:10;8.40;99.90
47482;DHT22;33219;47.410;9.730;2022-10-31T02:20:46;8.30;99.90
47482;DHT22;33219;47.410;9.730;2022-10-31T02:29:16;8.20;99.90
47482;DHT22;33219;47.410;9.730;2022-10-31T02:34:25;8.20;99.90
47482;DHT22;33219;47.410;9.730;2022-10-31T02:37:16;8.20;99.90
47482;DHT22;33219;47.410;9.730;2022-10-31T02:39:38;8.20;99.90
47482;DHT22;33219;47.410;9.730;2022-10-31T02:44:55;8.20;99.90
47482;DHT22;33219;47.410;9.730;2022-10-31T02:47:37;8.20;99.90
47482;DHT22;33219;47.410;9.730;2022-10-31T02:52:40;8.10;99.90
47482;DHT22;33219;47.410;9.730;2022-10-31T02:57:58;8.10;99.90
47482;DHT22;33219;47.410;9.730;2022-10-31T03:00:26;8.00;99.90
47482;DHT22;33219;47.410;9.730;2022-10-31T03:10:56;8.10;99.90
47482;DHT22;33219;47.410;9.730;2022-10-31T03:16:13;8.00;99.90
47482;DHT22;33219;47.410;9.730;2022-10-31T03:18:46;7.90;99.90
47482;DHT22;33219;47.410;9.730;2022-10-31T03:21:14;7.90;99.90
47482;DHT22;33219;47.410;9.730;2022-10-31T03:23:45;7.80;99.90
47482;DHT22;33219;47.410;9.730;2022-10-31T03:26:14;7.80;99.90
47482;DHT22;33219;47.410;9.730;2022-10-31T03:28:56;7.70;99.90
47482;DHT22;33219;47.410;9.730;2022-10-31T03:31:21;7.70;99.90
47482;DHT22;33219;47.410;9.730;2022-10-31T03:33:50;7.70;99.90
47482;DHT22;33219;47.410;9.730;2022-10-31T03:36:19;7.70;99.90
47482;DHT22;33219;47.410;9.730;2022-10-31T03:38:47;7.60;99.90
47482;DHT22;33219;47.410;9.730;2022-10-31T03:41:23;7.60;99.90
47482;DHT22;33219;47.410;9.730;2022-10-31T03:44:01;7.60;99.90
47482;DHT22;33219;47.410;9.730;2022-10-31T03:46:29;7.70;99.90
47482;DHT22;33219;47.410;9.730;2022-10-31T03:48:57;7.70;99.90
47482;DHT22;33219;47.410;9.730;2022-10-31T03:51:30;7.70;99.90
47482;DHT22;33219;47.410;9.730;2022-10-31T03:54:00;7.70;99.90
47482;DHT22;33219;47.410;9.730;2022-10-31T03:56:29;7.70;99.90
47482;DHT22;33219;47.410;9.730;2022-10-31T03:59:02;7.70;99.90
47482;DHT22;33219;47.410;9.730;2022-10-31T04:01:32;7.70;99.90
47482;DHT22;33219;47.410;9.730;2022-10-31T04:04:01;7.70;99.90
47482;DHT22;33219;47.410;9.730;2022-10-31T04:06:30;7.70;99.90
47482;DHT22;33219;47.410;9.730;2022-10-31T04:09:00;7.70;99.90
47482;DHT22;33219;47.410;9.730;2022-10-31T04:11:31;7.60;99.90
47482;DHT22;33219;47.410;9.730;2022-10-31T04:14:02;7.60;99.90
47482;DHT22;33219;47.410;9.730;2022-10-31T04:16:31;7.60;99.90
47482;DHT22;33219;47.410;9.730;2022-10-31T04:18:58;7.60;99.90
47482;DHT22;33219;47.410;9.730;2022-10-31T04:21:30;7.60;99.90
47482;DHT22;33219;47.410;9.730;2022-10-31T04:23:58;7.60;99.90
47482;DHT22;33219;47.410;9.730;2022-10-31T04:26:25;7.60;99.90
47482;DHT22;33219;47.410;9.730;2022-10-31T04:28:53;7.50;99.90
47482;DHT22;33219;47.410;9.730;2022-10-31T04:31:20;7.50;99.90
47482;DHT22;33219;47.410;9.730;2022-10-31T04:33:48;7.60;99.90
47482;DHT22;33219;47.410;9.730;2022-10-31T04:36:16;7.60;99.90
47482;DHT22;33219;47.410;9.730;2022-10-31T04:38:43;7.60;99.90
47482;DHT22;33219;47.410;9.730;2022-10-31T04:41:11;7.60;99.90
47482;DHT22;33219;47.410;9.730;2022-10-31T04:43:38;7.60;99.90
47482;DHT22;33219;47.410;9.730;2022-10-31T04:46:06;7.60;99.90
47482;DHT22;33219;47.410;9.730;2022-10-31T04:48:34;7.60;99.90
47482;DHT22;33219;47.410;9.730;2022-10-31T04:51:02;7.60;99.90
47482;DHT22;33219;47.410;9.730;2022-10-31T04:53:30;7.60;99.90
47482;DHT22;33219;47.410;9.730;2022-10-31T04:56:00;7.50;99.90
47482;DHT22;33219;47.410;9.730;2022-10-31T04:58:28;7.50;99.90
47482;DHT22;33219;47.410;9.730;2022-10-31T05:00:56;7.40;99.90
47482;DHT22;33219;47.410;9.730;2022-10-31T05:03:24;7.40;99.90
47482;DHT22;33219;47.410;9.730;2022-10-31T05:05:51;7.40;99.90
47482;DHT22;33219;47.410;9.730;2022-10-31T05:08:19;7.40;99.90
47482;DHT22;33219;47.410;9.730;2022-10-31T05:10:47;7.40;99.90
47482;DHT22;33219;47.410;9.730;2022-10-31T05:13:14;7.40;99.90
47482;DHT22;33219;47.410;9.730;2022-10-31T05:15:42;7.40;99.90
47482;DHT22;33219;47.410;9.730;2022-10-31T05:18:09;7.40;99.90
47482;DHT22;33219;47.410;9.730;2022-10-31T05:20:37;7.30;99.90
47482;DHT22;33219;47.410;9.730;2022-10-31T05:23:05;7.40;99.90
47482;DHT22;33219;47.410;9.730;2022-10-31T05:25:32;7.30;99.90
47482;DHT22;33219;47.410;9.730;2022-10-31T05:28:00;7.30;99.90
47482;DHT22;33219;47.410;9.730;2022-10-31T05:30:30;7.30;99.90
47482;DHT22;33219;47.410;9.730;2022-10-31T05:32:58;7.20;99.90
47482;DHT22;33219;47.410;9.730;2022-10-31T05:35:30;7.20;99.90
47482;DHT22;33219;47.410;9.730;2022-10-31T05:37:58;7.10;99.90
47482;DHT22;33219;47.410;9.730;2022-10-31T05:40:26;7.10;99.90
47482;DHT22;33219;47.410;9.730;2022-10-31T05:42:56;7.10;99.90
47482;DHT22;33219;47.410;9.730;2022-10-31T05:45:24;7.10;99.90
47482;DHT22;33219;47.410;9.730;2022-10-31T05:47:54;7.10;99.90
47482;DHT22;33219;47.410;9.730;2022-10-31T05:50:23;7.10;99.90
47482;DHT22;33219;47.410;9.730;2022-10-31T05:53:02;7.10;99.90
47482;DHT22;33219;47.410;9.730;2022-10-31T05:55:31;7.10;99.90
47482;DHT22;33219;47.410;9.730;2022-10-31T05:57:59;7.10;99.90
47482;DHT22;33219;47.410;9.730;2022-10-31T06:00:27;7.10;99.90
47482;DHT22;33219;47.410;9.730;2022-10-31T06:03:03;7.00;99.90
47482;DHT22;33219;47.410;9.730;2022-10-31T06:05:31;7.00;99.90
47482;DHT22;33219;47.410;9.730;2022-10-31T06:07:59;7.00;99.90
47482;DHT22;33219;47.410;9.730;2022-10-31T06:10:27;7.00;99.90
47482;DHT22;33219;47.410;9.730;2022-10-31T06:12:55;7.00;99.90
47482;DHT22;33219;47.410;9.730;2022-10-31T06:15:22;7.00;99.90
47482;DHT22;33219;47.410;9.730;2022-10-31T06:18:02;7.00;99.90
47482;DHT22;33219;47.410;9.730;2022-10-31T06:20:30;7.00;99.90
47482;DHT22;33219;47.410;9.730;2022-10-31T06:22:57;7.00;99.90
47482;DHT22;33219;47.410;9.730;2022-10-31T06:25:25;7.00;99.90
47482;DHT22;33219;47.410;9.730;2022-10-31T06:27:53;7.10;99.90
47482;DHT22;33219;47.410;9.730;2022-10-31T06:30:21;7.10;99.90
47482;DHT22;33219;47.410;9.730;2022-10-31T06:32:49;7.20;99.90
47482;DHT22;33219;47.410;9.730;2022-10-31T06:35:16;7.10;99.90
47482;DHT22;33219;47.410;9.730;2022-10-31T06:37:55;7.20;99.90
47482;DHT22;33219;47.410;9.730;2022-10-31T06:40:23;7.20;99.90
47482;DHT22;33219;47.410;9.730;2022-10-31T06:43:01;7.20;99.90
47482;DHT22;33219;47.410;9.730;2022-10-31T06:45:26;7.20;99.90
47482;DHT22;33219;47.410;9.730;2022-10-31T06:47:55;7.10;99.90
47482;DHT22;33219;47.410;9.730;2022-10-31T06:50:23;7.10;99.90
47482;DHT22;33219;47.410;9.730;2022-10-31T06:52:53;7.10;99.90
47482;DHT22;33219;47.410;9.730;2022-10-31T06:55:24;7.20;99.90
47482;DHT22;33219;47.410;9.730;2022-10-31T06:58:00;7.30;99.90
47482;DHT22;33219;47.410;9.730;2022-10-31T07:00:24;7.40;99.90
47482;DHT22;33219;47.410;9.730;2022-10-31T07:03:03;7.50;99.90
47482;DHT22;33219;47.410;9.730;2022-10-31T07:05:31;7.60;99.90
47482;DHT22;33219;47.410;9.730;2022-10-31T07:08:04;7.70;99.90
47482;DHT22;33219;47.410;9.730;2022-10-31T07:10:34;7.80;99.90
47482;DHT22;33219;47.410;9.730;2022-10-31T07:13:04;7.90;99.90
47482;DHT22;33219;47.410;9.730;2022-10-31T07:15:36;8.00;99.90
47482;DHT22;33219;47.410;9.730;2022-10-31T07:18:06;8.10;99.90
47482;DHT22;33219;47.410;9.730;2022-10-31T07:20:34;8.20;99.90
47482;DHT22;33219;47.410;9.730;2022-10-31T07:23:02;8.40;99.90
47482;DHT22;33219;47.410;9.730;2022-10-31T07:25:30;8.50;99.90
47482;DHT22;33219;47.410;9.730;2022-10-31T07:27:57;8.60;99.90
47482;DHT22;33219;47.410;9.730;2022-10-31T07:30:25;8.70;99.90
47482;DHT22;33219;47.410;9.730;2022-10-31T07:32:52;8.90;99.90
47482;DHT22;33219;47.410;9.730;2022-10-31T07:35:23;9.00;99.90
47482;DHT22;33219;47.410;9.730;2022-10-31T07:37:50;9.10;99.90
47482;DHT22;33219;47.410;9.730;2022-10-31T07:40:19;9.50;99.90
47482;DHT22;33219;47.410;9.730;2022-10-31T07:42:48;10.00;99.90
47482;DHT22;33219;47.410;9.730;2022-10-31T07:45:18;10.50;99.90
47482;DHT22;33219;47.410;9.730;2022-10-31T07:47:49;10.70;99.90
47482;DHT22;33219;47.410;9.730;2022-10-31T07:50:18;11.00;99.90
47482;DHT22;33219;47.410;9.730;2022-10-31T07:52:46;10.90;99.90
47482;DHT22;33219;47.410;9.730;2022-10-31T07:55:15;11.10;99.90
47482;DHT22;33219;47.410;9.730;2022-10-31T07:57:42;11.10;99.90
47482;DHT22;33219;47.410;9.730;2022-10-31T08:00:10;11.30;99.90
47482;DHT22;33219;47.410;9.730;2022-10-31T08:02:38;11.00;99.90
47482;DHT22;33219;47.410;9.730;2022-10-31T08:05:06;11.00;99.90
47482;DHT22;33219;47.410;9.730;2022-10-31T08:07:38;11.10;99.90
47482;DHT22;33219;47.410;9.730;2022-10-31T08:10:05;11.30;99.90
47482;DHT22;33219;47.410;9.730;2022-10-31T08:12:33;11.50;99.90
47482;DHT22;33219;47.410;9.730;2022-10-31T08:15:01;11.50;99.90
47482;DHT22;33219;47.410;9.730;2022-10-31T08:17:28;11.90;99.90
47482;DHT22;33219;47.410;9.730;2022-10-31T08:19:56;12.10;99.90
47482;DHT22;33219;47.410;9.730;2022-10-31T08:22:23;12.40;99.90
47482;DHT22;33219;47.410;9.730;2022-10-31T08:24:51;12.80;99.90
47482;DHT22;33219;47.410;9.730;2022-10-31T08:27:18;12.80;99.90
47482;DHT22;33219;47.410;9.730;2022-10-31T08:29:46;12.90;99.90
47482;DHT22;33219;47.410;9.730;2022-10-31T08:32:13;12.90;99.90
47482;DHT22;33219;47.410;9.730;2022-10-31T08:34:41;12.90;99.90
47482;DHT22;33219;47.410;9.730;2022-10-31T08:37:08;12.80;99.90
47482;DHT22;33219;47.410;9.730;2022-10-31T08:39:36;12.60;99.90
47482;DHT22;33219;47.410;9.730;2022-10-31T08:42:04;12.30;99.90
47482;DHT22;33219;47.410;9.730;2022-10-31T08:44:31;12.10;99.90
47482;DHT22;33219;47.410;9.730;2022-10-31T08:46:59;11.50;99.90
47482;DHT22;33219;47.410;9.730;2022-10-31T08:49:26;11.50;99.90
47482;DHT22;33219;47.410;9.730;2022-10-31T08:51:54;11.30;99.90
47482;DHT22;33219;47.410;9.730;2022-10-31T08:54:21;11.30;99.90
47482;DHT22;33219;47.410;9.730;2022-10-31T08:56:53;11.10;99.90
47482;DHT22;33219;47.410;9.730;2022-10-31T08:59:21;11.20;99.90
47482;DHT22;33219;47.410;9.730;2022-10-31T09:01:49;11.00;99.90
47482;DHT22;33219;47.410;9.730;2022-10-31T09:04:17;11.20;99.90
47482;DHT22;33219;47.410;9.730;2022-10-31T09:06:44;11.30;99.90
47482;DHT22;33219;47.410;9.730;2022-10-31T09:09:12;11.40;99.90
47482;DHT22;33219;47.410;9.730;2022-10-31T09:11:39;11.50;99.90
47482;DHT22;33219;47.410;9.730;2022-10-31T09:14:07;11.50;99.90
47482;DHT22;33219;47.410;9.730;2022-10-31T09:16:35;11.60;99.90
47482;DHT22;33219;47.410;9.730;2022-10-31T09:19:02;11.60;99.90
47482;DHT22;33219;47.410;9.730;2022-10-31T09:21:30;11.40;99.90
47482;DHT22;33219;47.410;9.730;2022-10-31T09:23:59;11.30;99.90
47482;DHT22;33219;47.410;9.730;2022-10-31T09:26:27;11.30;99.90
47482;DHT22;33219;47.410;9.730;2022-10-31T09:28:54;11.30;99.90
47482;DHT22;33219;47.410;9.730;2022-10-31T09:31:23;11.50;99.90
47482;DHT22;33219;47.410;9.730;2022-10-31T09:33:53;11.20;99.90
47482;DHT22;33219;47.410;9.730;2022-10-31T09:36:20;11.50;99.90
47482;DHT22;33219;47.410;9.730;2022-10-31T09:38:48;11.90;99.90
47482;DHT22;33219;47.410;9.730;2022-10-31T09:44:15;12.30;99.90
47482;DHT22;33219;47.410;9.730;2022-10-31T09:46:57;12.30;99.90
47482;DHT22;33219;47.410;9.730;2022-10-31T09:52:32;12.60;99.90
47482;DHT22;33219;47.410;9.730;2022-10-31T09:55:05;12.70;99.90
47482;DHT22;33219;47.410;9.730;2022-10-31T09:57:36;12.80;99.90
47482;DHT22;33219;47.410;9.730;2022-10-31T10:00:06;12.80;99.90
47482;DHT22;33219;47.410;9.730;2022-10-31T10:06:17;12.80;99.90
47482;DHT22;33219;47.410;9.730;2022-10-31T10:08:44;12.60;99.90
47482;DHT22;33219;47.410;9.730;2022-10-31T10:25:16;13.10;99.90
47482;DHT22;33219;47.410;9.730;2022-10-31T10:30:44;13.00;99.90
47482;DHT22;33219;47.410;9.730;2022-10-31T10:33:20;13.20;99.90
47482;DHT22;33219;47.410;9.730;2022-10-31T10:35:52;13.40;99.90
47482;DHT22;33219;47.410;9.730;2022-10-31T10:39:20;13.50;99.90
47482;DHT22;33219;47.410;9.730;2022-10-31T10:43:36;13.80;99.90
47482;DHT22;33219;47.410;9.730;2022-10-31T10:46:32;13.70;99.90
47482;DHT22;33219;47.410;9.730;2022-10-31T10:49:25;13.70;99.90
47482;DHT22;33219;47.410;9.730;2022-10-31T11:02:52;13.20;99.90
47482;DHT22;33219;47.410;9.730;2022-10-31T11:05:35;13.10;99.90
47482;DHT22;33219;47.410;9.730;2022-10-31T11:08:03;13.10;99.90
47482;DHT22;33219;47.410;9.730;2022-10-31T11:10:31;13.10;99.90
47482;DHT22;33219;47.410;9.730;2022-10-31T11:13:05;13.30;99.90
47482;DHT22;33219;47.410;9.730;2022-10-31T11:15:39;13.30;99.90
47482;DHT22;33219;47.410;9.730;2022-10-31T11:18:12;13.30;99.90
47482;DHT22;33219;47.410;9.730;2022-10-31T11:20:37;13.50;99.90
47482;DHT22;33219;47.410;9.730;2022-10-31T11:23:16;13.60;99.90
47482;DHT22;33219;47.410;9.730;2022-10-31T11:25:55;13.60;99.90
47482;DHT22;33219;47.410;9.730;2022-10-31T11:28:20;13.60;99.90
47482;DHT22;33219;47.410;9.730;2022-10-31T11:30:55;13.70;99.90
47482;DHT22;33219;47.410;9.730;2022-10-31T11:33:21;13.70;99.90
47482;DHT22;33219;47.410;9.730;2022-10-31T11:35:49;13.80;99.90
47482;DHT22;33219;47.410;9.730;2022-10-31T11:38:21;13.70;99.90
47482;DHT22;33219;47.410;9.730;2022-10-31T11:40:56;13.80;99.90
47482;DHT22;33219;47.410;9.730;2022-10-31T11:43:23;13.90;99.90
47482;DHT22;33219;47.410;9.730;2022-10-31T11:45:51;13.90;99.90
47482;DHT22;33219;47.410;9.730;2022-10-31T11:48:21;13.80;99.90
47482;DHT22;33219;47.410;9.730;2022-10-31T11:50:53;13.70;99.90
47482;DHT22;33219;47.410;9.730;2022-10-31T11:53:27;13.60;99.90
47482;DHT22;33219;47.410;9.730;2022-10-31T11:56:09;13.60;99.90
47482;DHT22;33219;47.410;9.730;2022-10-31T11:58:34;13.50;99.90
47482;DHT22;33219;47.410;9.730;2022-10-31T12:01:01;13.60;99.90
47482;DHT22;33219;47.410;9.730;2022-10-31T12:03:38;13.60;99.90
47482;DHT22;33219;47.410;9.730;2022-10-31T12:06:15;13.80;99.90
47482;DHT22;33219;47.410;9.730;2022-10-31T12:08:42;13.80;99.90
47482;DHT22;33219;47.410;9.730;2022-10-31T12:11:32;13.80;99.90
47482;DHT22;33219;47.410;9.730;2022-10-31T12:14:16;13.90;99.90
47482;DHT22;33219;47.410;9.730;2022-10-31T12:16:57;14.00;99.90
47482;DHT22;33219;47.410;9.730;2022-10-31T12:19:37;14.10;99.90
47482;DHT22;33219;47.410;9.730;2022-10-31T12:22:26;14.20;99.90
47482;DHT22;33219;47.410;9.730;2022-10-31T12:33:29;14.30;99.90
47482;DHT22;33219;47.410;9.730;2022-10-31T12:41:45;14.60;99.90
47482;DHT22;33219;47.410;9.730;2022-10-31T12:47:01;14.80;99.90
47482;DHT22;33219;47.410;9.730;2022-10-31T12:49:33;14.70;99.90
47482;DHT22;33219;47.410;9.730;2022-10-31T12:57:32;14.60;99.90
47482;DHT22;33219;47.410;9.730;2022-10-31T13:00:03;14.50;99.90
47482;DHT22;33219;47.410;9.730;2022-10-31T13:02:38;14.60;99.90
47482;DHT22;33219;47.410;9.730;2022-10-31T13:13:06;15.00;99.90
47482;DHT22;33219;47.410;9.730;2022-10-31T13:15:41;15.20;99.90
47482;DHT22;33219;47.410;9.730;2022-10-31T13:18:06;15.40;99.90
47482;DHT22;33219;47.410;9.730;2022-10-31T13:20:41;15.40;99.90
47482;DHT22;33219;47.410;9.730;2022-10-31T13:25:55;15.30;99.90
47482;DHT22;33219;47.410;9.730;2022-10-31T13:28:43;15.20;99.90
47482;DHT22;33219;47.410;9.730;2022-10-31T13:31:08;15.20;99.90
47482;DHT22;33219;47.410;9.730;2022-10-31T13:39:23;15.10;99.90
47482;DHT22;33219;47.410;9.730;2022-10-31T13:41:58;15.00;99.90
47482;DHT22;33219;47.410;9.730;2022-10-31T13:44:28;14.80;99.90
47482;DHT22;33219;47.410;9.730;2022-10-31T13:46:57;14.60;99.90
47482;DHT22;33219;47.410;9.730;2022-10-31T13:54:48;14.30;99.90
47482;DHT22;33219;47.410;9.730;2022-10-31T13:57:37;14.20;99.90
47482;DHT22;33219;47.410;9.730;2022-10-31T14:02:51;14.00;99.90
47482;DHT22;33219;47.410;9.730;2022-10-31T14:05:25;13.90;99.90
47482;DHT22;33219;47.410;9.730;2022-10-31T14:07:54;13.90;99.90
47482;DHT22;33219;47.410;9.730;2022-10-31T14:10:27;13.90;99.90
47482;DHT22;33219;47.410;9.730;2022-10-31T14:13:14;13.80;99.90
47482;DHT22;33219;47.410;9.730;2022-10-31T14:15:56;13.80;99.90
47482;DHT22;33219;47.410;9.730;2022-10-31T14:18:34;13.80;99.90
47482;DHT22;33219;47.410;9.730;2022-10-31T14:21:14;13.80;99.90
47482;DHT22;33219;47.410;9.730;2022-10-31T14:23:42;13.80;99.90
47482;DHT22;33219;47.410;9.730;2022-10-31T14:29:02;13.70;99.90
47482;DHT22;33219;47.410;9.730;2022-10-31T14:31:45;13.70;99.90
47482;DHT22;33219;47.410;9.730;2022-10-31T14:39:32;13.70;99.90
47482;DHT22;33219;47.410;9.730;2022-10-31T14:45:27;13.70;99.90
47482;DHT22;33219;47.410;9.730;2022-10-31T14:51:01;13.50;99.90
47482;DHT22;33219;47.410;9.730;2022-10-31T14:56:17;13.50;99.90
47482;DHT22;33219;47.410;9.730;2022-10-31T14:58:45;13.50;99.90
47482;DHT22;33219;47.410;9.730;2022-10-31T15:01:28;13.40;99.90
47482;DHT22;33219;47.410;9.730;2022-10-31T15:03:55;13.40;99.90
47482;DHT22;33219;47.410;9.730;2022-10-31T15:06:24;13.30;99.90
47482;DHT22;33219;47.410;9.730;2022-10-31T15:08:53;13.20;99.90
47482;DHT22;33219;47.410;9.730;2022-10-31T15:11:24;13.20;99.90
47482;DHT22;33219;47.410;9.730;2022-10-31T15:13:56;13.10;99.90
47482;DHT22;33219;47.410;9.730;2022-10-31T15:16:27;13.10;99.90
47482;DHT22;33219;47.410;9.730;2022-10-31T15:18:57;13.00;99.90
47482;DHT22;33219;47.410;9.730;2022-10-31T15:21:27;12.90;99.90
47482;DHT22;33219;47.410;9.730;2022-10-31T15:24:00;12.90;99.90
47482;DHT22;33219;47.410;9.730;2022-10-31T15:26:39;12.80;99.90
47482;DHT22;33219;47.410;9.730;2022-10-31T15:29:15;12.70;99.90
47482;DHT22;33219;47.410;9.730;2022-10-31T15:31:55;12.60;99.90
47482;DHT22;33219;47.410;9.730;2022-10-31T15:34:33;12.50;99.90
47482;DHT22;33219;47.410;9.730;2022-10-31T15:36:59;12.50;99.90
47482;DHT22;33219;47.410;9.730;2022-10-31T15:39:27;12.50;99.90
47482;DHT22;33219;47.410;9.730;2022-10-31T15:41:56;12.40;99.90
47482;DHT22;33219;47.410;9.730;2022-10-31T15:44:27;12.40;99.90
47482;DHT22;33219;47.410;9.730;2022-10-31T15:47:01;12.30;99.90
47482;DHT22;33219;47.410;9.730;2022-10-31T15:49:38;12.30;99.90
47482;DHT22;33219;47.410;9.730;2022-10-31T15:54:43;12.20;99.90
47482;DHT22;33219;47.410;9.730;2022-10-31T15:57:12;12.10;99.90
47482;DHT22;33219;47.410;9.730;2022-10-31T15:59:44;12.00;99.90
47482;DHT22;33219;47.410;9.730;2022-10-31T16:02:13;11.90;99.90
47482;DHT22;33219;47.410;9.730;2022-10-31T16:04:55;11.80;99.90
47482;DHT22;33219;47.410;9.730;2022-10-31T16:07:24;11.80;99.90
47482;DHT22;33219;47.410;9.730;2022-10-31T16:09:54;11.70;99.90
47482;DHT22;33219;47.410;9.730;2022-10-31T16:12:27;11.70;99.90
47482;DHT22;33219;47.410;9.730;2022-10-31T16:14:54;11.60;99.90
47482;DHT22;33219;47.410;9.730;2022-10-31T16:17:24;11.60;99.90
47482;DHT22;33219;47.410;9.730;2022-10-31T16:19:57;11.50;99.90
47482;DHT22;33219;47.410;9.730;2022-10-31T16:22:28;11.50;99.90
47482;DHT22;33219;47.410;9.730;2022-10-31T16:25:13;11.40;99.90
47482;DHT22;33219;47.410;9.730;2022-10-31T16:27:49;11.30;99.90
47482;DHT22;33219;47.410;9.730;2022-10-31T16:30:29;11.20;99.90
47482;DHT22;33219;47.410;9.730;2022-10-31T16:32:58;11.10;99.90
47482;DHT22;33219;47.410;9.730;2022-10-31T16:35:35;11.10;99.90
47482;DHT22;33219;47.410;9.730;2022-10-31T16:38:03;11.10;99.90
47482;DHT22;33219;47.410;9.730;2022-10-31T16:40:32;11.00;99.90
47482;DHT22;33219;47.410;9.730;2022-10-31T16:43:00;11.00;99.90
47482;DHT22;33219;47.410;9.730;2022-10-31T16:45:30;11.00;99.90
47482;DHT22;33219;47.410;9.730;2022-10-31T16:48:08;10.90;99.90
47482;DHT22;33219;47.410;9.730;2022-10-31T16:50:34;10.80;99.90
47482;DHT22;33219;47.410;9.730;2022-10-31T16:53:02;10.80;99.90
47482;DHT22;33219;47.410;9.730;2022-10-31T16:55:29;10.80;99.90
47482;DHT22;33219;47.410;9.730;2022-10-31T16:58:00;10.80;99.90
47482;DHT22;33219;47.410;9.730;2022-10-31T17:00:28;10.70;99.90
47482;DHT22;33219;47.410;9.730;2022-10-31T17:02:57;10.70;99.90
47482;DHT22;33219;47.410;9.730;2022-10-31T17:05:25;10.70;99.90
47482;DHT22;33219;47.410;9.730;2022-10-31T17:07:56;10.60;99.90
47482;DHT22;33219;47.410;9.730;2022-10-31T17:10:25;10.70;99.90
47482;DHT22;33219;47.410;9.730;2022-10-31T17:12:54;10.80;99.90
47482;DHT22;33219;47.410;9.730;2022-10-31T17:15:25;10.70;99.90
47482;DHT22;33219;47.410;9.730;2022-10-31T17:17:53;10.80;99.90
47482;DHT22;33219;47.410;9.730;2022-10-31T17:20:26;10.70;99.90
47482;DHT22;33219;47.410;9.730;2022-10-31T17:22:55;10.70;99.90
47482;DHT22;33219;47.410;9.730;2022-10-31T17:25:27;10.70;99.90
47482;DHT22;33219;47.410;9.730;2022-10-31T17:27:55;10.60;99.90
47482;DHT22;33219;47.410;9.730;2022-10-31T17:30:23;10.60;99.90
47482;DHT22;33219;47.410;9.730;2022-10-31T17:32:51;10.50;99.90
47482;DHT22;33219;47.410;9.730;2022-10-31T17:35:19;10.60;99.90
47482;DHT22;33219;47.410;9.730;2022-10-31T17:37:47;10.60;99.90
47482;DHT22;33219;47.410;9.730;2022-10-31T17:40:19;10.50;99.90
47482;DHT22;33219;47.410;9.730;2022-10-31T17:42:50;10.50;99.90
47482;DHT22;33219;47.410;9.730;2022-10-31T17:45:19;10.40;99.90
47482;DHT22;33219;47.410;9.730;2022-10-31T17:47:48;10.40;99.90
47482;DHT22;33219;47.410;9.730;2022-10-31T17:50:18;10.30;99.90
47482;DHT22;33219;47.410;9.730;2022-10-31T17:52:46;10.30;99.90
47482;DHT22;33219;47.410;9.730;2022-10-31T17:55:15;10.30;99.90
47482;DHT22;33219;47.410;9.730;2022-10-31T17:57:43;10.30;99.90
47482;DHT22;33219;47.410;9.730;2022-10-31T18:00:14;10.30;99.90
47482;DHT22;33219;47.410;9.730;2022-10-31T18:02:42;10.20;99.90
47482;DHT22;33219;47.410;9.730;2022-10-31T18:05:10;10.30;99.90
47482;DHT22;33219;47.410;9.730;2022-10-31T18:07:38;10.30;99.90
47482;DHT22;33219;47.410;9.730;2022-10-31T18:10:07;10.30;99.90
47482;DHT22;33219;47.410;9.730;2022-10-31T18:12:35;10.30;99.90
47482;DHT22;33219;47.410;9.730;2022-10-31T18:15:03;10.20;99.90